sensor_id;sensor_type;location;lat;lon;timestamp;pressure;altitude;pressure_sealevel;temperature;humidity
74433;BME280;62865;53.146;23.172;2023-02-01T00:01:21;1007.6;;;1.7;83.9
74433;BME280;62865;53.146;23.172;2023-02-01T00:06:33;1007.5;;;1.7;84.4
74433;BME280;62865;53.146;23.172;2023-02-01T00:11:31;1007.4;;;1.7;84.6
74433;BME280;62865;53.146;23.172;2023-02-01T00:16:12;1007.4;;;1.7;85.3
74433;BME280;62865;53.146;23.172;2023-02-01T00:21:21;1007.3;;;1.8;85.3
74433;BME280;62865;53.146;23.172;2023-02-01T00:26:32;1007.2;;;1.8;85
74433;BME280;62865;53.146;23.172;2023-02-01T00:31:21;1007.1;;;1.9;84.7
74433;BME280;62865;53.146;23.172;2023-02-01T00:36:23;1007.1;;;1.9;85
74433;BME280;62865;53.146;23.172;2023-02-01T00:41:21;1007;;;1.9;85.1
74433;BME280;62865;53.146;23.172;2023-02-01T00:46:31;1006.9;;;1.9;85
74433;BME280;62865;53.146;23.172;2023-02-01T00:51:22;1006.8;;;1.9;85.2
74433;BME280;62865;53.146;23.172;2023-02-01T00:56:21;1006.7;;;1.9;85.3
74433;BME280;62865;53.146;23.172;2023-02-01T01:01:24;1006.8;;;2.1;84.9
74433;BME280;62865;53.146;23.172;2023-02-01T01:06:22;1006.7;;;2.2;84.6
74433;BME280;62865;53.146;23.172;2023-02-01T01:11:36;1006.6;;;2.2;84.5
74433;BME280;62865;53.146;23.172;2023-02-01T01:16:35;1006.5;;;2.2;84.5
74433;BME280;62865;53.146;23.172;2023-02-01T01:21:12;1006.4;;;2.1;84.6
74433;BME280;62865;53.146;23.172;2023-02-01T01:26:24;1006.3;;;2.2;84.9
74433;BME280;62865;53.146;23.172;2023-02-01T01:31:25;1006.3;;;2.2;84.9
74433;BME280;62865;53.146;23.172;2023-02-01T01:36:35;1006.1;;;2.2;84.7
74433;BME280;62865;53.146;23.172;2023-02-01T01:41:14;1006.2;;;2.2;84.9
74433;BME280;62865;53.146;23.172;2023-02-01T01:46:45;1006.2;;;2.2;85.1
74433;BME280;62865;53.146;23.172;2023-02-01T01:51:35;1006.1;;;2.3;85.1
74433;BME280;62865;53.146;23.172;2023-02-01T01:56:13;1006.1;;;2.3;85.1
74433;BME280;62865;53.146;23.172;2023-02-01T02:01:13;1006.1;;;2.4;85.2
74433;BME280;62865;53.146;23.172;2023-02-01T02:06:27;1006.1;;;2.5;85.1
74433;BME280;62865;53.146;23.172;2023-02-01T02:11:21;1006.1;;;2.5;84.8
74433;BME280;62865;53.146;23.172;2023-02-01T02:16:38;1006.1;;;2.6;84.8
74433;BME280;62865;53.146;23.172;2023-02-01T02:21:23;1006;;;2.7;84.4
74433;BME280;62865;53.146;23.172;2023-02-01T02:26:29;1006;;;2.7;84.2
74433;BME280;62865;53.146;23.172;2023-02-01T02:31:25;1005.9;;;2.8;84.2
74433;BME280;62865;53.146;23.172;2023-02-01T02:36:26;1005.9;;;2.8;84.2
74433;BME280;62865;53.146;23.172;2023-02-01T02:41:25;1005.9;;;2.8;84.1
74433;BME280;62865;53.146;23.172;2023-02-01T02:46:33;1006;;;2.8;84.1
74433;BME280;62865;53.146;23.172;2023-02-01T02:51:14;1006;;;2.9;84.3
74433;BME280;62865;53.146;23.172;2023-02-01T02:56:13;1006;;;2.9;84.2
74433;BME280;62865;53.146;23.172;2023-02-01T03:01:21;1006;;;2.9;84.3
74433;BME280;62865;53.146;23.172;2023-02-01T03:06:13;1006.1;;;2.9;84.4
74433;BME280;62865;53.146;23.172;2023-02-01T03:11:14;1006.1;;;2.9;84.5
74433;BME280;62865;53.146;23.172;2023-02-01T03:16:24;1006.1;;;2.8;84.7
74433;BME280;62865;53.146;23.172;2023-02-01T03:21:26;1006.1;;;2.8;84.8
74433;BME280;62865;53.146;23.172;2023-02-01T03:26:13;1006.1;;;2.8;84.6
74433;BME280;62865;53.146;23.172;2023-02-01T03:31:13;1006;;;2.8;84.3
74433;BME280;62865;53.146;23.172;2023-02-01T03:36:33;1006;;;2.7;84.1
74433;BME280;62865;53.146;23.172;2023-02-01T03:41:24;1006.1;;;2.6;83.9
74433;BME280;62865;53.146;23.172;2023-02-01T03:46:15;1006.2;;;2.6;84
74433;BME280;62865;53.146;23.172;2023-02-01T03:51:13;1006.3;;;2.4;84.2
74433;BME280;62865;53.146;23.172;2023-02-01T03:56:25;1006.2;;;2.4;84
74433;BME280;62865;53.146;23.172;2023-02-01T04:01:13;1006.1;;;2.4;84.1
74433;BME280;62865;53.146;23.172;2023-02-01T04:06:23;1006.3;;;2.4;84.1
74433;BME280;62865;53.146;23.172;2023-02-01T04:11:33;1006.3;;;2.5;83.9
74433;BME280;62865;53.146;23.172;2023-02-01T04:16:13;1006.3;;;2.5;83.7
74433;BME280;62865;53.146;23.172;2023-02-01T04:21:23;1006.4;;;2.5;83.5
74433;BME280;62865;53.146;23.172;2023-02-01T04:26:21;1006.4;;;2.6;83.2
74433;BME280;62865;53.146;23.172;2023-02-01T04:31:11;1006.3;;;2.7;83
74433;BME280;62865;53.146;23.172;2023-02-01T04:36:43;1006.3;;;2.7;83.1
74433;BME280;62865;53.146;23.172;2023-02-01T04:41:13;1006.4;;;2.8;83
74433;BME280;62865;53.146;23.172;2023-02-01T04:46:31;1006.4;;;2.8;83
74433;BME280;62865;53.146;23.172;2023-02-01T04:51:23;1006.5;;;2.9;82.9
74433;BME280;62865;53.146;23.172;2023-02-01T04:56:11;1006.5;;;2.9;83
74433;BME280;62865;53.146;23.172;2023-02-01T05:01:11;1006.5;;;2.9;82.9
74433;BME280;62865;53.146;23.172;2023-02-01T05:06:45;1006.5;;;2.9;82.7
74433;BME280;62865;53.146;23.172;2023-02-01T05:11:13;1006.6;;;3;82.8
74433;BME280;62865;53.146;23.172;2023-02-01T05:16:13;1006.5;;;3;82.5
74433;BME280;62865;53.146;23.172;2023-02-01T05:21:23;1006.6;;;3;82.6
74433;BME280;62865;53.146;23.172;2023-02-01T05:26:35;1006.6;;;3;82.5
74433;BME280;62865;53.146;23.172;2023-02-01T05:36:25;1006.5;;;3.1;82.6
74433;BME280;62865;53.146;23.172;2023-02-01T05:41:25;1006.5;;;3;82.8
74433;BME280;62865;53.146;23.172;2023-02-01T05:46:33;1006.6;;;2.9;83.2
74433;BME280;62865;53.146;23.172;2023-02-01T05:51:35;1006.6;;;2.9;83.4
74433;BME280;62865;53.146;23.172;2023-02-01T05:56:13;1006.6;;;2.8;83.9
74433;BME280;62865;53.146;23.172;2023-02-01T06:01:11;1006.6;;;2.9;83.6
74433;BME280;62865;53.146;23.172;2023-02-01T06:06:11;1006.6;;;2.8;83.9
74433;BME280;62865;53.146;23.172;2023-02-01T06:11:33;1006.6;;;2.9;83.7
74433;BME280;62865;53.146;23.172;2023-02-01T06:16:11;1006.6;;;2.9;84
74433;BME280;62865;53.146;23.172;2023-02-01T06:21:31;1006.6;;;3;83.5
74433;BME280;62865;53.146;23.172;2023-02-01T06:26:11;1006.6;;;3;83.1
74433;BME280;62865;53.146;23.172;2023-02-01T06:31:11;1006.6;;;3.1;83
74433;BME280;62865;53.146;23.172;2023-02-01T06:36:21;1006.6;;;3.1;82.8
74433;BME280;62865;53.146;23.172;2023-02-01T06:41:11;1006.6;;;3.1;82.8
74433;BME280;62865;53.146;23.172;2023-02-01T06:46:23;1006.6;;;3.2;82.7
74433;BME280;62865;53.146;23.172;2023-02-01T06:51:22;1006.6;;;3.3;82.6
74433;BME280;62865;53.146;23.172;2023-02-01T06:56:21;1006.6;;;3.3;82.3
74433;BME280;62865;53.146;23.172;2023-02-01T07:01:29;1006.6;;;3.3;82.2
74433;BME280;62865;53.146;23.172;2023-02-01T07:06:35;1006.6;;;3.4;82.1
74433;BME280;62865;53.146;23.172;2023-02-01T07:11:21;1006.6;;;3.4;81.8
74433;BME280;62865;53.146;23.172;2023-02-01T07:16:23;1006.6;;;3.5;81.8
74433;BME280;62865;53.146;23.172;2023-02-01T07:21:23;1006.7;;;3.5;81.7
74433;BME280;62865;53.146;23.172;2023-02-01T07:26:21;1006.7;;;3.7;80.8
74433;BME280;62865;53.146;23.172;2023-02-01T07:31:14;1006.7;;;3.8;80.5
74433;BME280;62865;53.146;23.172;2023-02-01T07:36:25;1006.7;;;3.8;80.4
74433;BME280;62865;53.146;23.172;2023-02-01T07:41:15;1006.8;;;4;80.4
74433;BME280;62865;53.146;23.172;2023-02-01T07:46:25;1006.7;;;4;79.5
74433;BME280;62865;53.146;23.172;2023-02-01T07:51:14;1006.7;;;4;79.6
74433;BME280;62865;53.146;23.172;2023-02-01T07:56:23;1006.6;;;3.9;79.9
74433;BME280;62865;53.146;23.172;2023-02-01T08:01:14;1006.7;;;3.9;80.2
74433;BME280;62865;53.146;23.172;2023-02-01T08:06:19;1006.7;;;3.9;80.2
74433;BME280;62865;53.146;23.172;2023-02-01T08:11:11;1006.6;;;3.8;80.3
74433;BME280;62865;53.146;23.172;2023-02-01T08:16:13;1006.6;;;3.8;80.3
74433;BME280;62865;53.146;23.172;2023-02-01T08:21:37;1006.6;;;3.9;80.1
74433;BME280;62865;53.146;23.172;2023-02-01T08:26:14;1006.7;;;4;79.9
74433;BME280;62865;53.146;23.172;2023-02-01T08:31:14;1006.6;;;4.2;79.6
74433;BME280;62865;53.146;23.172;2023-02-01T08:36:13;1006.7;;;4.3;78.9
74433;BME280;62865;53.146;23.172;2023-02-01T08:41:33;1006.6;;;4.4;78.8
74433;BME280;62865;53.146;23.172;2023-02-01T08:46:25;1006.6;;;4.4;78.4
74433;BME280;62865;53.146;23.172;2023-02-01T08:51:33;1006.6;;;4.4;78.3
74433;BME280;62865;53.146;23.172;2023-02-01T08:56:14;1006.6;;;4.4;77.8
74433;BME280;62865;53.146;23.172;2023-02-01T09:01:23;1006.6;;;4.6;77.7
74433;BME280;62865;53.146;23.172;2023-02-01T09:06:25;1006.6;;;4.7;77
74433;BME280;62865;53.146;23.172;2023-02-01T09:11:21;1006.6;;;4.8;77
74433;BME280;62865;53.146;23.172;2023-02-01T09:16:11;1006.6;;;4.9;76.5
74433;BME280;62865;53.146;23.172;2023-02-01T09:21:21;1006.6;;;4.9;76
74433;BME280;62865;53.146;23.172;2023-02-01T09:26:11;1006.6;;;4.9;75.8
74433;BME280;62865;53.146;23.172;2023-02-01T09:31:23;1006.5;;;5;75.6
74433;BME280;62865;53.146;23.172;2023-02-01T09:36:11;1006.6;;;5;75.3
74433;BME280;62865;53.146;23.172;2023-02-01T09:41:35;1006.6;;;4.9;75.7
74433;BME280;62865;53.146;23.172;2023-02-01T09:46:21;1006.6;;;4.9;75.9
74433;BME280;62865;53.146;23.172;2023-02-01T09:51:15;1006.5;;;5;75.9
74433;BME280;62865;53.146;23.172;2023-02-01T09:56:36;1006.5;;;5;76.6
74433;BME280;62865;53.146;23.172;2023-02-01T10:01:24;1006.5;;;4.8;77.4
74433;BME280;62865;53.146;23.172;2023-02-01T10:06:30;1006.5;;;4.6;78.2
74433;BME280;62865;53.146;23.172;2023-02-01T10:11:16;1006.5;;;4.5;78.8
74433;BME280;62865;53.146;23.172;2023-02-01T10:16:34;1006.5;;;4.3;79.5
74433;BME280;62865;53.146;23.172;2023-02-01T10:21:16;1006.5;;;4.5;79.3
74433;BME280;62865;53.146;23.172;2023-02-01T10:26:26;1006.5;;;4.6;79.2
74433;BME280;62865;53.146;23.172;2023-02-01T10:31:13;1006.4;;;4.8;78.6
74433;BME280;62865;53.146;23.172;2023-02-01T10:36:36;1006.4;;;4.8;78.5
74433;BME280;62865;53.146;23.172;2023-02-01T10:41:19;1006.4;;;4.9;78.3
74433;BME280;62865;53.146;23.172;2023-02-01T10:46:49;1006.4;;;4.8;78.6
74433;BME280;62865;53.146;23.172;2023-02-01T10:51:16;1006.3;;;4.7;78.9
74433;BME280;62865;53.146;23.172;2023-02-01T10:56:37;1006.4;;;4.6;79.1
74433;BME280;62865;53.146;23.172;2023-02-01T11:01:24;1006.3;;;4.6;79.5
74433;BME280;62865;53.146;23.172;2023-02-01T11:07:05;1006.3;;;4.5;79.9
74433;BME280;62865;53.146;23.172;2023-02-01T11:11:15;1006.3;;;4.3;80.1
74433;BME280;62865;53.146;23.172;2023-02-01T11:16:28;1006.3;;;4.4;80.2
74433;BME280;62865;53.146;23.172;2023-02-01T11:21:14;1006.3;;;4.4;80.4
74433;BME280;62865;53.146;23.172;2023-02-01T11:26:14;1006.3;;;4.3;80.4
74433;BME280;62865;53.146;23.172;2023-02-01T11:31:13;1006.3;;;4.2;80.6
74433;BME280;62865;53.146;23.172;2023-02-01T11:36:22;1006.3;;;4.2;80.9
74433;BME280;62865;53.146;23.172;2023-02-01T11:41:24;1006.3;;;4.2;80.8
74433;BME280;62865;53.146;23.172;2023-02-01T11:46:27;1006.2;;;4.3;80.8
74433;BME280;62865;53.146;23.172;2023-02-01T11:51:31;1006.2;;;4.3;80.7
74433;BME280;62865;53.146;23.172;2023-02-01T11:56:36;1006.2;;;4.5;80
74433;BME280;62865;53.146;23.172;2023-02-01T12:01:29;1006.1;;;4.6;80.2
74433;BME280;62865;53.146;23.172;2023-02-01T12:06:24;1006.2;;;4.8;79.2
74433;BME280;62865;53.146;23.172;2023-02-01T12:11:43;1006.2;;;4.9;78.7
74433;BME280;62865;53.146;23.172;2023-02-01T12:16:37;1006.2;;;4.9;78.2
74433;BME280;62865;53.146;23.172;2023-02-01T12:21:39;1006.2;;;4.9;78.2
74433;BME280;62865;53.146;23.172;2023-02-01T12:26:42;1006.3;;;4.8;78.1
74433;BME280;62865;53.146;23.172;2023-02-01T12:31:43;1006.3;;;4.8;78
74433;BME280;62865;53.146;23.172;2023-02-01T12:36:25;1006.3;;;4.8;77.9
74433;BME280;62865;53.146;23.172;2023-02-01T12:41:49;1006.3;;;4.8;77.8
74433;BME280;62865;53.146;23.172;2023-02-01T12:46:39;1006.3;;;4.9;78
74433;BME280;62865;53.146;23.172;2023-02-01T12:51:26;1006.2;;;4.9;77.6
74433;BME280;62865;53.146;23.172;2023-02-01T12:56:40;1006.2;;;5;77.4
74433;BME280;62865;53.146;23.172;2023-02-01T13:01:25;1006.3;;;5.2;76.9
74433;BME280;62865;53.146;23.172;2023-02-01T13:06:15;1006.3;;;5.2;77.7
74433;BME280;62865;53.146;23.172;2023-02-01T13:11:27;1006.4;;;5.1;77.7
74433;BME280;62865;53.146;23.172;2023-02-01T13:16:36;1006.3;;;5;77.5
74433;BME280;62865;53.146;23.172;2023-02-01T13:21:26;1006.3;;;5;77.9
74433;BME280;62865;53.146;23.172;2023-02-01T13:26:13;1006.4;;;5;77.5
74433;BME280;62865;53.146;23.172;2023-02-01T13:31:41;1006.4;;;5.1;77.3
74433;BME280;62865;53.146;23.172;2023-02-01T13:36:28;1006.5;;;5.1;77.3
74433;BME280;62865;53.146;23.172;2023-02-01T13:41:25;1006.5;;;5.1;76.7
74433;BME280;62865;53.146;23.172;2023-02-01T13:46:25;1006.5;;;5.1;76.7
74433;BME280;62865;53.146;23.172;2023-02-01T13:51:40;1006.5;;;5.1;76.6
74433;BME280;62865;53.146;23.172;2023-02-01T13:56:25;1006.5;;;5.1;76.2
74433;BME280;62865;53.146;23.172;2023-02-01T14:01:34;1006.6;;;5.1;76.3
74433;BME280;62865;53.146;23.172;2023-02-01T14:06:35;1006.6;;;5.1;76.2
74433;BME280;62865;53.146;23.172;2023-02-01T14:11:46;1006.6;;;5.2;76
74433;BME280;62865;53.146;23.172;2023-02-01T14:16:14;1006.6;;;5.2;76.1
74433;BME280;62865;53.146;23.172;2023-02-01T14:21:16;1006.6;;;5.2;75.9
74433;BME280;62865;53.146;23.172;2023-02-01T14:26:41;1006.6;;;5.2;75.9
74433;BME280;62865;53.146;23.172;2023-02-01T14:31:15;1006.7;;;5.2;75.6
74433;BME280;62865;53.146;23.172;2023-02-01T14:36:13;1006.7;;;5.2;76
74433;BME280;62865;53.146;23.172;2023-02-01T14:41:23;1006.7;;;5.2;75.4
74433;BME280;62865;53.146;23.172;2023-02-01T14:46:14;1006.7;;;5.2;75.5
74433;BME280;62865;53.146;23.172;2023-02-01T14:51:14;1006.7;;;5.1;75.9
74433;BME280;62865;53.146;23.172;2023-02-01T14:56:35;1006.8;;;5.1;75.7
74433;BME280;62865;53.146;23.172;2023-02-01T15:01:15;1006.8;;;5.1;75.6
74433;BME280;62865;53.146;23.172;2023-02-01T15:06:24;1006.8;;;5.2;75.4
74433;BME280;62865;53.146;23.172;2023-02-01T15:11:52;1006.8;;;5.2;75.5
74433;BME280;62865;53.146;23.172;2023-02-01T15:16:14;1007;;;5.2;75.4
74433;BME280;62865;53.146;23.172;2023-02-01T15:21:15;1007;;;5;76.1
74433;BME280;62865;53.146;23.172;2023-02-01T15:26:23;1007;;;4.9;76.8
74433;BME280;62865;53.146;23.172;2023-02-01T15:31:37;1007.1;;;4.8;76.4
74433;BME280;62865;53.146;23.172;2023-02-01T15:36:16;1007.1;;;4.8;76.8
74433;BME280;62865;53.146;23.172;2023-02-01T15:41:33;1007.2;;;4.7;77.4
74433;BME280;62865;53.146;23.172;2023-02-01T15:46:32;1007.2;;;4.7;77.5
74433;BME280;62865;53.146;23.172;2023-02-01T15:51:24;1007.2;;;4.7;77.8
74433;BME280;62865;53.146;23.172;2023-02-01T16:01:13;1007.2;;;4.7;77.8
74433;BME280;62865;53.146;23.172;2023-02-01T16:06:44;1007.2;;;4.7;77.8
74433;BME280;62865;53.146;23.172;2023-02-01T16:11:16;1007.2;;;4.7;77.8
74433;BME280;62865;53.146;23.172;2023-02-01T16:16:36;1007.2;;;4.7;77.8
74433;BME280;62865;53.146;23.172;2023-02-01T16:21:21;1007.2;;;4.7;77.8
74433;BME280;62865;53.146;23.172;2023-02-01T16:26:23;1007.2;;;4.7;77.8
74433;BME280;62865;53.146;23.172;2023-02-01T16:31:25;1007.2;;;4.7;77.8
74433;BME280;62865;53.146;23.172;2023-02-01T16:36:21;1007.2;;;4.7;77.8
74433;BME280;62865;53.146;23.172;2023-02-01T16:41:13;1007.2;;;4.7;77.8
74433;BME280;62865;53.146;23.172;2023-02-01T16:46:35;1007.2;;;4.7;77.8
74433;BME280;62865;53.146;23.172;2023-02-01T16:51:24;1007.2;;;4.7;77.8
74433;BME280;62865;53.146;23.172;2023-02-01T16:56:23;1007.2;;;4.7;77.8
74433;BME280;62865;53.146;23.172;2023-02-01T17:01:45;1007.2;;;4.7;77.8
74433;BME280;62865;53.146;23.172;2023-02-01T17:06:24;1007.2;;;4.7;77.8
74433;BME280;62865;53.146;23.172;2023-02-01T17:11:13;1007.2;;;4.7;77.8
74433;BME280;62865;53.146;23.172;2023-02-01T17:16:26;1007.2;;;4.7;77.8
74433;BME280;62865;53.146;23.172;2023-02-01T17:21:13;1007.2;;;4.7;77.8
74433;BME280;62865;53.146;23.172;2023-02-01T17:26:13;1007.2;;;4.7;77.8
74433;BME280;62865;53.146;23.172;2023-02-01T17:31:13;1007.2;;;4.7;77.8
74433;BME280;62865;53.146;23.172;2023-02-01T17:36:23;1007.2;;;4.7;77.8
74433;BME280;62865;53.146;23.172;2023-02-01T17:41:25;1007.2;;;4.7;77.8
74433;BME280;62865;53.146;23.172;2023-02-01T17:46:23;1007.2;;;4.7;77.8
74433;BME280;62865;53.146;23.172;2023-02-01T17:51:24;1007.2;;;4.7;77.8
74433;BME280;62865;53.146;23.172;2023-02-01T17:56:14;1007.2;;;4.7;77.8
74433;BME280;62865;53.146;23.172;2023-02-01T18:01:25;1007.2;;;4.7;77.8
74433;BME280;62865;53.146;23.172;2023-02-01T18:06:25;1007.2;;;4.7;77.8
74433;BME280;62865;53.146;23.172;2023-02-01T18:11:13;1007.2;;;4.7;77.8
74433;BME280;62865;53.146;23.172;2023-02-01T18:16:35;1007.2;;;4.7;77.8
74433;BME280;62865;53.146;23.172;2023-02-01T18:21:23;1007.2;;;4.7;77.8
74433;BME280;62865;53.146;23.172;2023-02-01T18:26:21;1007.2;;;4.7;77.8
74433;BME280;62865;53.146;23.172;2023-02-01T18:31:22;1007.2;;;4.7;77.8
74433;BME280;62865;53.146;23.172;2023-02-01T18:36:33;1007.2;;;4.7;77.8
74433;BME280;62865;53.146;23.172;2023-02-01T18:41:21;1007.2;;;4.7;77.8
74433;BME280;62865;53.146;23.172;2023-02-01T18:46:57;1007.2;;;4.7;77.8
74433;BME280;62865;53.146;23.172;2023-02-01T18:51:21;1007.2;;;4.7;77.8
74433;BME280;62865;53.146;23.172;2023-02-01T18:56:14;1007.2;;;4.7;77.8
74433;BME280;62865;53.146;23.172;2023-02-01T19:01:31;1007.2;;;4.7;77.8
74433;BME280;62865;53.146;23.172;2023-02-01T19:06:11;1007.2;;;4.7;77.8
74433;BME280;62865;53.146;23.172;2023-02-01T19:11:19;1007.2;;;4.7;77.8
74433;BME280;62865;53.146;23.172;2023-02-01T19:16:12;1007.2;;;4.7;77.8
74433;BME280;62865;53.146;23.172;2023-02-01T19:21:21;1007.2;;;4.7;77.8
74433;BME280;62865;53.146;23.172;2023-02-01T19:26:11;1007.2;;;4.7;77.8
74433;BME280;62865;53.146;23.172;2023-02-01T19:31:13;1007.2;;;4.7;77.8
74433;BME280;62865;53.146;23.172;2023-02-01T19:36:13;1007.2;;;4.7;77.8
74433;BME280;62865;53.146;23.172;2023-02-01T19:41:25;1007.2;;;4.7;77.8
74433;BME280;62865;53.146;23.172;2023-02-01T19:46:13;1007.2;;;4.7;77.8
74433;BME280;62865;53.146;23.172;2023-02-01T19:51:25;1007.2;;;4.7;77.8
74433;BME280;62865;53.146;23.172;2023-02-01T19:56:23;1007.2;;;4.7;77.8
74433;BME280;62865;53.146;23.172;2023-02-01T20:01:25;1007.2;;;4.7;77.8
74433;BME280;62865;53.146;23.172;2023-02-01T20:06:43;1007.2;;;4.7;77.8
74433;BME280;62865;53.146;23.172;2023-02-01T20:11:22;1007.2;;;4.7;77.8
74433;BME280;62865;53.146;23.172;2023-02-01T20:16:31;1007.2;;;4.7;77.8
74433;BME280;62865;53.146;23.172;2023-02-01T20:21:33;1007.2;;;4.7;77.8
74433;BME280;62865;53.146;23.172;2023-02-01T20:26:11;1007.2;;;4.7;77.8
74433;BME280;62865;53.146;23.172;2023-02-01T20:31:36;1007.2;;;4.7;77.8
74433;BME280;62865;53.146;23.172;2023-02-01T20:36:13;1007.2;;;4.7;77.8
74433;BME280;62865;53.146;23.172;2023-02-01T20:41:13;1007.2;;;4.7;77.8
74433;BME280;62865;53.146;23.172;2023-02-01T20:46:25;1007.2;;;4.7;77.8
74433;BME280;62865;53.146;23.172;2023-02-01T20:51:21;1007.2;;;4.7;77.8
74433;BME280;62865;53.146;23.172;2023-02-01T20:56:13;1007.2;;;4.7;77.8
74433;BME280;62865;53.146;23.172;2023-02-01T21:01:13;1007.2;;;4.7;77.8
74433;BME280;62865;53.146;23.172;2023-02-01T21:06:13;1007.2;;;4.7;77.8
74433;BME280;62865;53.146;23.172;2023-02-01T21:11:13;1007.2;;;4.7;77.8
74433;BME280;62865;53.146;23.172;2023-02-01T21:16:23;1007.2;;;4.7;77.8
74433;BME280;62865;53.146;23.172;2023-02-01T21:21:13;1007.2;;;4.7;77.8
74433;BME280;62865;53.146;23.172;2023-02-01T21:26:35;1007.2;;;4.7;77.8
74433;BME280;62865;53.146;23.172;2023-02-01T21:31:35;1007.2;;;4.7;77.8
74433;BME280;62865;53.146;23.172;2023-02-01T21:36:31;1007.2;;;4.7;77.8
74433;BME280;62865;53.146;23.172;2023-02-01T21:41:37;1007.2;;;4.7;77.8
74433;BME280;62865;53.146;23.172;2023-02-01T21:46:23;1007.2;;;4.7;77.8
74433;BME280;62865;53.146;23.172;2023-02-01T21:51:13;1007.2;;;4.7;77.8
74433;BME280;62865;53.146;23.172;2023-02-01T21:56:13;1007.2;;;4.7;77.8
74433;BME280;62865;53.146;23.172;2023-02-01T22:01:13;1007.2;;;4.7;77.8
74433;BME280;62865;53.146;23.172;2023-02-01T22:06:32;1007.2;;;4.7;77.8
74433;BME280;62865;53.146;23.172;2023-02-01T22:11:13;1007.2;;;4.7;77.8
74433;BME280;62865;53.146;23.172;2023-02-01T22:16:13;1007.2;;;4.7;77.8
74433;BME280;62865;53.146;23.172;2023-02-01T22:21:23;1007.2;;;4.7;77.8
74433;BME280;62865;53.146;23.172;2023-02-01T22:26:25;1007.2;;;4.7;77.8
74433;BME280;62865;53.146;23.172;2023-02-01T22:31:11;1007.2;;;4.7;77.8
74433;BME280;62865;53.146;23.172;2023-02-01T22:36:23;1007.2;;;4.7;77.8
74433;BME280;62865;53.146;23.172;2023-02-01T22:41:21;1007.2;;;4.7;77.8
74433;BME280;62865;53.146;23.172;2023-02-01T22:46:22;1007.2;;;4.7;77.8
74433;BME280;62865;53.146;23.172;2023-02-01T22:51:12;1007.2;;;4.7;77.8
74433;BME280;62865;53.146;23.172;2023-02-01T22:56:35;1007.2;;;4.7;77.8
74433;BME280;62865;53.146;23.172;2023-02-01T23:01:12;1007.2;;;4.7;77.8
74433;BME280;62865;53.146;23.172;2023-02-01T23:06:11;1007.2;;;4.7;77.8
74433;BME280;62865;53.146;23.172;2023-02-01T23:11:33;1007.2;;;4.7;77.8
74433;BME280;62865;53.146;23.172;2023-02-01T23:16:12;1007.2;;;4.7;77.8
74433;BME280;62865;53.146;23.172;2023-02-01T23:21:21;1007.2;;;4.7;77.8
74433;BME280;62865;53.146;23.172;2023-02-01T23:26:30;1007.2;;;4.7;77.8
74433;BME280;62865;53.146;23.172;2023-02-01T23:31:12;1007.2;;;4.7;77.8
74433;BME280;62865;53.146;23.172;2023-02-01T23:36:12;1007.2;;;4.7;77.8
74433;BME280;62865;53.146;23.172;2023-02-01T23:41:21;1007.2;;;4.7;77.8
74433;BME280;62865;53.146;23.172;2023-02-01T23:46:21;1007.2;;;4.7;77.8
74433;BME280;62865;53.146;23.172;2023-02-01T23:51:13;1007.2;;;4.7;77.8
74433;BME280;62865;53.146;23.172;2023-02-01T23:56:15;1007.2;;;4.7;77.8
